Terminal Aerodrome Forecast
Issued by NWS

Home | Current Version | Previous Version | Text Only | Print | Product List | Glossary On
Versions: 1 2 3 4 5 6 7 8 9 10 11 12 13
000
FTUS43 KOAX 241739
TAFBFF
TAF
KBFF 241739Z 2418/2518 31018G28KT P6SM BKN050
     FM250100 31008KT P6SM SCT050 BKN100
     FM251600 28016G26KT P6SM SCT100=

USA.gov is the U.S. government's official web portal to all federal, state and local government web resources and services.